This is the latest recevied weather packets stored in our database for station/object DL1SEW-6. If no packets are shown the sender has not sent any weather packets the latest 10 day(s).
| Time | Temp. | Humidity | Pressure | Rain* | Wind** | Luminosity | Snow |
|---|---|---|---|---|---|---|---|
| 1777616698 | 10.56° C | 41% | 1024.5 hPa | 0 mm | - | 346 W/m² | - |
| 1777615799 | 9.44° C | 40% | 1024.4 hPa | 0 mm | - | 301 W/m² | - |
| 1777614897 | 8.89° C | 41% | 1024.3 hPa | 0 mm | - | 253 W/m² | - |
| 1777613099 | 7.22° C | 45% | 1024 hPa | 0 mm | - | 168 W/m² | - |
| 1777612202 | 6.11° C | 46% | 1023.7 hPa | 0 mm | - | 125 W/m² | - |
| 1777611301 | 5.56° C | 45% | 1023.7 hPa | 0 mm | - | 83 W/m² | - |
| 1777610404 | 5.56° C | 44% | 1023.6 hPa | 0 mm | - | 46 W/m² | - |
| 1777609502 | 5.56° C | 43% | 1023.4 hPa | 0 mm | - | 10 W/m² | - |
| 1777608601 | 6.11° C | 43% | 1023.4 hPa | 0 mm | - | 5 W/m² | - |
| 1777607701 | 6.67° C | 41% | 1023.4 hPa | 0 mm | - | 0 W/m² | - |
| 1777605901 | 7.22° C | 39% | 1023.5 hPa | 0 mm | - | 0 W/m² | - |
| 1777605001 | 7.78° C | 37% | 1023.7 hPa | 0 mm | - | 0 W/m² | - |
| 1777604100 | 7.78° C | 37% | 1023.7 hPa | 0 mm | - | 0 W/m² | - |
| 1777603200 | 8.33° C | 35% | 1023.7 hPa | 0 mm | - | 0 W/m² | - |
| 1777602300 | 8.89° C | 34% | 1023.9 hPa | 0 mm | - | 0 W/m² | - |
| 1777601400 | 8.89° C | 33% | 1023.8 hPa | 0 mm | - | 0 W/m² | - |
| 1777600499 | 8.89° C | 34% | 1023.8 hPa | 0 mm | - | 0 W/m² | - |
| 1777599600 | 8.89° C | 34% | 1023.7 hPa | 0 mm | - | 0 W/m² | - |
| 1777598699 | 8.89° C | 35% | 1023.6 hPa | 0 mm | - | 0 W/m² | - |
| 1777597799 | 8.89° C | 35% | 1023.7 hPa | 0 mm | - | 0 W/m² | - |
| 1777596899 | 8.89° C | 35% | 1023.8 hPa | 0 mm | - | 0 W/m² | - |
| 1777595999 | 9.44° C | 34% | 1023.9 hPa | 0 mm | - | 0 W/m² | - |
| 1777595098 | 9.44° C | 34% | 1023.9 hPa | 0 mm | - | 0 W/m² | - |
| 1777594199 | 9.44° C | 33% | 1024 hPa | 0 mm | - | 0 W/m² | - |
| 1777593299 | 9.44° C | 32% | 1023.9 hPa | 0 mm | - | 0 W/m² | - |
* Rain latest hour (hover to see other rain measurements)
** Current wind speed in m/s (hover to see current wind gust speed)